createdAt,value
2022-08-26T00:01:09.610Z,12.63
2022-08-26T00:03:56.925Z,12.70
2022-08-26T00:06:45.974Z,13.50
2022-08-26T00:09:33.819Z,18.27
2022-08-26T00:12:35.946Z,10.15
2022-08-26T00:15:25.569Z,12.90
2022-08-26T00:18:21.826Z,11.20
2022-08-26T00:21:10.979Z,13.65
2022-08-26T00:23:58.130Z,14.30
2022-08-26T00:26:45.343Z,12.77
2022-08-26T00:29:35.485Z,13.15
2022-08-26T00:32:24.702Z,15.88
2022-08-26T00:35:13.713Z,12.30
2022-08-26T00:38:02.374Z,14.55
2022-08-26T00:40:55.243Z,15.35
2022-08-26T00:43:46.224Z,21.38
2022-08-26T00:46:46.505Z,11.40
2022-08-26T00:49:38.813Z,13.48
2022-08-26T00:52:26.471Z,17.90
2022-08-26T00:55:38.192Z,16.02
2022-08-26T00:58:28.036Z,15.93
2022-08-26T01:01:17.060Z,14.43
2022-08-26T01:04:05.253Z,16.58
2022-08-26T01:06:53.749Z,14.98
2022-08-26T01:09:40.961Z,17.75
2022-08-26T01:12:31.768Z,18.60
2022-08-26T01:15:25.448Z,11.90
2022-08-26T01:18:14.533Z,12.63
2022-08-26T01:21:27.199Z,12.85
2022-08-26T01:24:14.774Z,11.40
2022-08-26T01:27:06.913Z,12.45
2022-08-26T01:29:54.991Z,14.73
2022-08-26T01:32:43.479Z,11.13
2022-08-26T01:35:30.823Z,16.30
2022-08-26T01:38:18.488Z,10.90
2022-08-26T01:41:16.166Z,20.95
2022-08-26T01:44:09.811Z,14.18
2022-08-26T01:46:58.875Z,13.02
2022-08-26T01:49:50.878Z,19.60
2022-08-26T01:52:44.389Z,15.65
2022-08-26T01:55:35.601Z,18.10
2022-08-26T01:58:35.174Z,14.48
2022-08-26T02:01:29.074Z,14.65
2022-08-26T02:04:26.018Z,15.63
2022-08-26T02:07:14.283Z,13.38
2022-08-26T02:10:01.534Z,16.92
2022-08-26T02:12:50.509Z,17.42
2022-08-26T02:15:42.852Z,14.70
2022-08-26T02:18:33.190Z,15.07
2022-08-26T02:21:20.467Z,16.90
2022-08-26T02:24:16.793Z,11.60
2022-08-26T02:27:05.458Z,14.75
2022-08-26T02:29:57.794Z,18.75
2022-08-26T02:32:46.425Z,13.55
2022-08-26T02:35:37.755Z,15.93
2022-08-26T02:38:26.084Z,13.05
2022-08-26T02:41:13.244Z,16.70
2022-08-26T02:44:01.283Z,12.77
2022-08-26T02:46:48.816Z,17.73
2022-08-26T02:49:37.798Z,21.52
2022-08-26T02:52:25.446Z,16.60
2022-08-26T02:55:12.754Z,18.25
2022-08-26T02:58:01.193Z,19.08
2022-08-26T03:00:53.014Z,20.15
2022-08-26T03:03:41.116Z,21.55
2022-08-26T03:06:29.276Z,21.75
2022-08-26T03:09:18.982Z,20.45
2022-08-26T03:12:06.357Z,19.50
2022-08-26T03:14:54.810Z,21.13
2022-08-26T03:17:43.086Z,17.10
2022-08-26T03:20:31.089Z,19.25
2022-08-26T03:23:18.609Z,16.20
2022-08-26T03:26:08.525Z,18.85
2022-08-26T03:29:16.714Z,17.05
2022-08-26T03:32:04.338Z,18.15
2022-08-26T03:34:51.585Z,26.52
2022-08-26T03:37:39.368Z,19.80
2022-08-26T03:40:29.133Z,18.73
2022-08-26T03:43:17.219Z,16.13
2022-08-26T03:46:06.574Z,19.63
2022-08-26T03:48:54.061Z,19.33
2022-08-26T03:51:41.217Z,24.20
2022-08-26T03:54:29.700Z,22.98
2022-08-26T03:57:17.172Z,22.83
2022-08-26T04:00:08.845Z,25.35
2022-08-26T04:02:56.476Z,18.65
2022-08-26T04:05:43.732Z,24.15
2022-08-26T04:08:32.267Z,20.17
2022-08-26T04:11:23.138Z,21.92
2022-08-26T04:17:02.787Z,25.92
2022-08-26T04:19:49.940Z,29.38
2022-08-26T04:22:37.056Z,23.58
2022-08-26T04:25:24.424Z,24.83
2022-08-26T04:28:12.125Z,26.10
2022-08-26T04:30:59.360Z,23.02
2022-08-26T04:33:49.520Z,21.88
2022-08-26T04:36:37.278Z,23.42
2022-08-26T04:39:25.333Z,21.77
2022-08-26T04:42:17.920Z,21.63
2022-08-26T04:45:09.919Z,20.98
2022-08-26T04:47:57.738Z,23.15
2022-08-26T04:50:45.009Z,19.48
2022-08-26T04:53:37.323Z,19.45
2022-08-26T04:56:30.249Z,20.35
2022-08-26T04:59:18.271Z,20.70
2022-08-26T05:02:06.824Z,17.85
2022-08-26T05:04:54.087Z,22.38
2022-08-26T05:07:41.525Z,32.33
2022-08-26T05:10:29.000Z,18.73
2022-08-26T05:13:18.555Z,24.58
2022-08-26T05:16:11.600Z,21.92
2022-08-26T05:18:59.097Z,18.20
2022-08-26T05:21:48.473Z,23.52
2022-08-26T05:24:36.525Z,21.35
2022-08-26T05:27:25.281Z,21.95
2022-08-26T05:30:12.645Z,15.75
2022-08-26T05:32:59.873Z,22.20
2022-08-26T05:35:47.663Z,18.48
2022-08-26T05:38:35.459Z,19.90
2022-08-26T05:41:28.283Z,14.68
2022-08-26T05:44:24.477Z,13.90
2022-08-26T05:47:11.932Z,19.73
2022-08-26T05:50:00.553Z,16.30
2022-08-26T05:52:49.319Z,16.65
2022-08-26T05:55:43.469Z,15.30
2022-08-26T05:58:33.299Z,18.58
2022-08-26T06:01:26.156Z,14.68
2022-08-26T06:04:14.120Z,14.20
2022-08-26T06:07:01.278Z,14.73
2022-08-26T06:09:48.392Z,14.55
2022-08-26T06:12:37.529Z,18.10
2022-08-26T06:15:25.147Z,11.55
2022-08-26T06:18:14.673Z,13.40
2022-08-26T06:21:22.210Z,20.23
2022-08-26T06:24:30.980Z,19.13
2022-08-26T06:27:18.252Z,15.15
2022-08-26T06:30:07.457Z,20.02
2022-08-26T06:32:54.605Z,16.80
2022-08-26T06:35:42.552Z,15.80
2022-08-26T06:38:29.768Z,24.13
2022-08-26T06:41:18.083Z,23.70
2022-08-26T06:44:07.454Z,16.63
2022-08-26T06:46:54.754Z,18.15
2022-08-26T06:49:42.000Z,15.30
2022-08-26T06:52:31.565Z,16.23
2022-08-26T06:55:18.725Z,17.77
2022-08-26T06:58:06.501Z,24.08
2022-08-26T07:00:53.685Z,15.00
2022-08-26T07:03:41.043Z,15.00
2022-08-26T07:06:28.974Z,23.73
2022-08-26T07:09:16.889Z,16.77
2022-08-26T07:12:04.486Z,19.25
2022-08-26T07:14:51.916Z,19.98
2022-08-26T07:17:41.128Z,15.70
2022-08-26T07:20:28.813Z,13.95
2022-08-26T07:23:16.916Z,19.50
2022-08-26T07:26:06.565Z,14.10
2022-08-26T07:28:55.791Z,14.98
2022-08-26T07:31:43.154Z,16.60
2022-08-26T07:34:32.270Z,15.82
2022-08-26T07:40:09.429Z,18.00
2022-08-26T07:42:57.865Z,16.40
2022-08-26T07:45:48.286Z,19.73
2022-08-26T07:48:35.959Z,15.38
2022-08-26T07:51:23.402Z,19.60
2022-08-26T07:54:12.180Z,14.43
2022-08-26T07:57:00.192Z,17.88
2022-08-26T07:59:47.386Z,15.38
2022-08-26T08:02:34.742Z,15.13
2022-08-26T08:05:22.793Z,17.75
2022-08-26T08:08:27.785Z,14.43
2022-08-26T08:11:16.785Z,16.45
2022-08-26T08:14:04.453Z,24.13
2022-08-26T08:16:55.976Z,15.05
2022-08-26T08:19:43.273Z,16.95
2022-08-26T08:22:30.422Z,20.52
2022-08-26T08:25:17.834Z,14.98
2022-08-26T08:28:05.085Z,17.45
2022-08-26T08:30:52.342Z,14.27
2022-08-26T08:33:39.542Z,16.80
2022-08-26T08:36:27.877Z,17.92
2022-08-26T08:39:23.568Z,19.17
2022-08-26T08:42:45.987Z,18.88
2022-08-26T08:45:37.884Z,16.08
2022-08-26T08:48:31.482Z,18.60
2022-08-26T08:51:22.097Z,20.23
2022-08-26T08:54:10.409Z,15.23
2022-08-26T08:57:26.775Z,20.33
2022-08-26T09:00:18.332Z,16.67
2022-08-26T09:03:26.347Z,17.92
2022-08-26T09:06:20.420Z,20.92
2022-08-26T09:09:08.174Z,18.20
2022-08-26T09:11:58.643Z,11.35
2022-08-26T09:17:45.735Z,19.38
2022-08-26T09:20:38.923Z,15.90
2022-08-26T09:23:27.254Z,15.73
2022-08-26T09:26:25.866Z,16.85
2022-08-26T09:29:25.196Z,15.95
2022-08-26T09:32:35.071Z,14.02
2022-08-26T09:35:26.909Z,15.27
2022-08-26T09:38:26.570Z,14.52
2022-08-26T09:41:40.471Z,22.83
2022-08-26T09:44:27.614Z,20.52
2022-08-26T09:47:14.962Z,15.98
2022-08-26T09:50:18.600Z,15.30
2022-08-26T09:53:12.908Z,18.25
2022-08-26T09:56:12.222Z,15.25
2022-08-26T09:59:01.007Z,19.30
2022-08-26T10:01:49.207Z,17.52
2022-08-26T10:04:37.392Z,15.48
2022-08-26T10:07:45.921Z,14.40
2022-08-26T10:10:39.505Z,18.73
2022-08-26T10:13:34.343Z,15.18
2022-08-26T10:16:33.808Z,15.65
2022-08-26T10:22:50.003Z,17.17
2022-08-26T10:26:19.250Z,17.30
2022-08-26T10:29:12.875Z,19.25
2022-08-26T10:32:04.764Z,17.63
2022-08-26T10:34:52.796Z,15.35
2022-08-26T10:38:04.741Z,18.02
2022-08-26T10:41:02.651Z,16.88
2022-08-26T10:44:02.869Z,16.65
2022-08-26T10:46:56.871Z,22.98
2022-08-26T10:49:47.589Z,23.92
2022-08-26T10:52:55.224Z,19.85
2022-08-26T10:56:06.133Z,13.68
2022-08-26T10:59:15.135Z,14.27
2022-08-26T11:02:25.283Z,12.90
2022-08-26T11:05:19.711Z,18.48
2022-08-26T11:08:33.988Z,18.50
2022-08-26T11:11:39.611Z,16.42
2022-08-26T11:14:34.105Z,11.85
2022-08-26T11:18:07.336Z,15.88
2022-08-26T11:20:55.117Z,16.58
2022-08-26T11:23:50.615Z,17.73
2022-08-26T11:26:56.192Z,16.35
2022-08-26T11:30:02.715Z,17.23
2022-08-26T11:32:58.336Z,16.65
2022-08-26T11:35:48.108Z,13.63
2022-08-26T11:38:40.940Z,16.23
2022-08-26T11:41:30.003Z,14.63
2022-08-26T11:44:23.967Z,13.93
2022-08-26T11:47:15.186Z,14.27
2022-08-26T11:50:16.830Z,17.15
2022-08-26T11:53:06.555Z,16.20
2022-08-26T11:55:56.837Z,14.05
2022-08-26T12:01:36.853Z,15.27
2022-08-26T12:04:31.726Z,16.52
2022-08-26T12:07:24.531Z,16.13
2022-08-26T12:10:26.206Z,12.02
2022-08-26T12:19:32.884Z,14.35
2022-08-26T12:22:34.558Z,11.35
2022-08-26T12:25:24.072Z,16.92
2022-08-26T12:28:11.729Z,15.70
2022-08-26T12:31:06.614Z,16.77
2022-08-26T12:33:55.393Z,12.90
2022-08-26T12:36:46.764Z,24.50
2022-08-26T12:39:36.723Z,14.45
2022-08-26T12:42:40.457Z,16.67
2022-08-26T12:45:30.595Z,20.90
2022-08-26T12:51:22.987Z,15.73
2022-08-26T12:54:14.413Z,13.77
2022-08-26T12:57:12.603Z,13.27
2022-08-26T13:00:30.933Z,14.13
2022-08-26T13:03:28.906Z,17.27
2022-08-26T13:06:29.810Z,20.60
2022-08-26T13:09:16.892Z,17.80
2022-08-26T13:12:04.770Z,13.38
2022-08-26T13:14:52.020Z,11.95
2022-08-26T13:17:39.221Z,9.68
2022-08-26T13:20:26.764Z,15.23
2022-08-26T13:23:14.767Z,16.40
2022-08-26T13:26:02.639Z,13.48
2022-08-26T13:29:01.319Z,20.85
2022-08-26T13:31:50.373Z,17.67
2022-08-26T13:34:38.188Z,16.77
2022-08-26T13:37:34.418Z,18.77
2022-08-26T13:40:23.423Z,19.65
2022-08-26T13:43:11.746Z,17.40
2022-08-26T13:45:58.916Z,19.17
2022-08-26T13:48:47.300Z,17.02
2022-08-26T13:51:34.691Z,14.23
2022-08-26T13:54:22.087Z,15.00
2022-08-26T13:57:09.801Z,13.93
2022-08-26T13:59:59.008Z,18.67
2022-08-26T14:02:47.035Z,17.00
2022-08-26T14:05:34.425Z,11.77
2022-08-26T14:08:23.138Z,17.08
2022-08-26T14:11:10.500Z,15.88
2022-08-26T14:13:57.903Z,13.43
2022-08-26T14:16:59.004Z,13.88
2022-08-26T14:19:49.249Z,18.13
2022-08-26T14:22:40.523Z,15.27
2022-08-26T14:25:32.434Z,12.45
2022-08-26T14:28:19.645Z,15.18
2022-08-26T14:31:06.983Z,17.30
2022-08-26T14:33:57.305Z,17.30
2022-08-26T14:36:44.407Z,14.65
2022-08-26T14:39:32.666Z,14.45
2022-08-26T14:42:26.303Z,14.25
2022-08-26T14:45:21.781Z,16.60
2022-08-26T14:48:09.801Z,17.00
2022-08-26T14:50:57.081Z,12.82
2022-08-26T14:54:03.172Z,15.98
2022-08-26T14:56:53.880Z,12.73
2022-08-26T14:59:49.880Z,15.95
2022-08-26T15:02:39.528Z,11.18
2022-08-26T15:05:26.835Z,10.88
2022-08-26T15:08:14.304Z,13.43
2022-08-26T15:11:01.450Z,8.60
2022-08-26T15:13:48.895Z,14.93
2022-08-26T15:16:36.834Z,14.75
2022-08-26T15:19:25.894Z,14.63
2022-08-26T15:22:13.246Z,16.98
2022-08-26T15:25:00.527Z,10.35
2022-08-26T15:27:47.697Z,13.20
2022-08-26T15:30:35.165Z,12.50
2022-08-26T15:33:22.591Z,17.23
2022-08-26T15:36:10.236Z,13.30
2022-08-26T15:38:59.253Z,11.13
2022-08-26T15:41:46.566Z,10.85
2022-08-26T15:44:34.153Z,9.40
2022-08-26T15:47:22.354Z,9.45
2022-08-26T15:50:09.845Z,8.45
2022-08-26T15:52:57.111Z,7.63
2022-08-26T15:55:44.677Z,9.82
2022-08-26T15:58:31.791Z,11.10
2022-08-26T16:01:27.233Z,9.50
2022-08-26T16:04:15.277Z,11.90
2022-08-26T16:07:03.480Z,9.88
2022-08-26T16:09:54.179Z,8.45
2022-08-26T16:12:42.299Z,14.52
2022-08-26T16:15:29.602Z,15.52
2022-08-26T16:18:16.924Z,12.13
2022-08-26T16:21:13.251Z,11.02
2022-08-26T16:24:01.575Z,13.77
2022-08-26T16:26:49.499Z,12.18
2022-08-26T16:29:39.359Z,12.77
2022-08-26T16:32:30.757Z,13.35
2022-08-26T16:35:18.624Z,9.27
2022-08-26T16:38:06.638Z,14.15
2022-08-26T16:40:53.983Z,9.50
2022-08-26T16:43:41.304Z,13.68
2022-08-26T16:46:28.762Z,12.27
2022-08-26T16:49:16.004Z,11.48
2022-08-26T16:52:03.818Z,13.02
2022-08-26T16:54:51.998Z,13.23
2022-08-26T16:57:40.538Z,10.65
2022-08-26T17:00:30.822Z,8.68
2022-08-26T17:03:18.103Z,9.40
2022-08-26T17:06:05.722Z,8.70
2022-08-26T17:08:53.026Z,8.00
2022-08-26T17:11:40.570Z,10.57
2022-08-26T17:14:27.884Z,7.70
2022-08-26T17:17:16.044Z,11.95
2022-08-26T17:20:09.132Z,7.95
2022-08-26T17:22:56.781Z,7.88
2022-08-26T17:25:44.351Z,8.20
2022-08-26T17:28:31.975Z,7.32
2022-08-26T17:31:19.816Z,6.95
2022-08-26T17:34:07.341Z,8.00
2022-08-26T17:36:54.867Z,13.20
2022-08-26T17:39:43.994Z,7.07
2022-08-26T17:42:31.667Z,8.38
2022-08-26T17:48:08.780Z,12.90
2022-08-26T17:50:56.489Z,13.07
2022-08-26T17:53:43.621Z,11.77
2022-08-26T17:56:31.047Z,8.93
2022-08-26T17:59:18.228Z,13.32
2022-08-26T18:02:05.514Z,11.57
2022-08-26T18:04:52.764Z,10.98
2022-08-26T18:07:43.704Z,10.00
2022-08-26T18:10:31.519Z,14.77
2022-08-26T18:13:19.012Z,11.23
2022-08-26T18:16:06.808Z,9.50
2022-08-26T18:18:54.386Z,14.20
2022-08-26T18:21:41.923Z,11.00
2022-08-26T18:24:32.156Z,7.60
2022-08-26T18:27:19.336Z,9.07
2022-08-26T18:30:15.842Z,8.35
2022-08-26T18:33:04.101Z,9.50
2022-08-26T18:35:51.277Z,9.85
2022-08-26T18:38:38.631Z,9.48
2022-08-26T18:41:35.040Z,12.00
2022-08-26T18:44:24.453Z,12.25
2022-08-26T18:47:12.275Z,11.02
2022-08-26T18:50:01.153Z,11.57
2022-08-26T18:52:48.298Z,14.98
2022-08-26T18:55:35.522Z,10.63
2022-08-26T18:58:22.974Z,13.20
2022-08-26T19:01:11.025Z,11.32
2022-08-26T19:04:00.308Z,13.88
2022-08-26T19:06:50.768Z,10.52
2022-08-26T19:09:38.061Z,12.48
2022-08-26T19:12:27.029Z,13.50
2022-08-26T19:15:14.400Z,15.63
2022-08-26T19:18:01.740Z,11.88
2022-08-26T19:20:48.971Z,10.77
2022-08-26T19:23:36.586Z,12.85
2022-08-26T19:26:25.468Z,13.68
2022-08-26T19:29:13.811Z,15.60
2022-08-26T19:32:02.048Z,11.27
2022-08-26T19:34:50.950Z,16.67
2022-08-26T19:37:38.500Z,16.83
2022-08-26T19:40:25.886Z,17.45
2022-08-26T19:43:13.546Z,17.38
2022-08-26T19:46:09.101Z,15.23
2022-08-26T19:48:58.235Z,16.23
2022-08-26T19:51:45.435Z,20.40
2022-08-26T19:54:33.366Z,14.52
2022-08-26T19:57:20.644Z,18.95
2022-08-26T20:00:11.560Z,17.10
2022-08-26T20:05:46.138Z,21.17
2022-08-26T20:08:35.160Z,21.02
2022-08-26T20:11:23.272Z,24.23
2022-08-26T20:14:13.604Z,26.42
2022-08-26T20:17:02.253Z,23.20
2022-08-26T20:20:07.816Z,21.90
2022-08-26T20:23:16.750Z,24.80
2022-08-26T20:26:04.046Z,21.95
2022-08-26T20:28:51.372Z,21.83
2022-08-26T20:31:39.530Z,19.45
2022-08-26T20:34:27.067Z,20.30
2022-08-26T20:37:14.228Z,18.15
2022-08-26T20:40:02.166Z,15.50
2022-08-26T20:42:49.572Z,14.40
2022-08-26T20:45:36.758Z,18.40
2022-08-26T20:48:24.030Z,16.92
2022-08-26T20:51:11.851Z,14.25
2022-08-26T20:53:59.602Z,14.45
2022-08-26T20:56:47.433Z,11.82
2022-08-26T20:59:34.744Z,15.77
2022-08-26T21:02:22.004Z,11.57
2022-08-26T21:05:09.378Z,14.65
2022-08-26T21:07:56.555Z,13.68
2022-08-26T21:10:43.954Z,10.35
2022-08-26T21:13:48.344Z,13.57
2022-08-26T21:16:41.868Z,20.27
2022-08-26T21:19:29.186Z,14.10
2022-08-26T21:22:16.341Z,13.82
2022-08-26T21:25:04.074Z,14.80
2022-08-26T21:27:51.306Z,15.50
2022-08-26T21:30:40.096Z,15.63
2022-08-26T21:33:27.802Z,17.92
2022-08-26T21:36:17.960Z,18.77
2022-08-26T21:39:10.765Z,21.15
2022-08-26T21:41:59.896Z,20.33
2022-08-26T21:44:48.986Z,21.67
2022-08-26T21:47:40.601Z,18.42
2022-08-26T21:50:29.487Z,22.25
2022-08-26T21:53:16.668Z,16.52
2022-08-26T21:56:07.223Z,17.85
2022-08-26T21:58:55.755Z,18.88
2022-08-26T22:01:42.960Z,18.90
2022-08-26T22:04:30.216Z,17.98
2022-08-26T22:07:19.797Z,23.67
2022-08-26T22:10:07.993Z,19.77
2022-08-26T22:12:56.002Z,21.23
2022-08-26T22:15:43.419Z,16.58
2022-08-26T22:18:30.906Z,20.90
2022-08-26T22:21:24.276Z,18.08
2022-08-26T22:24:12.182Z,17.48
2022-08-26T22:26:59.395Z,20.70
2022-08-26T22:29:48.025Z,16.17
2022-08-26T22:32:35.257Z,19.38
2022-08-26T22:35:28.170Z,16.98
2022-08-26T22:38:17.674Z,20.20
2022-08-26T22:41:08.432Z,18.23
2022-08-26T22:46:44.317Z,36.15
2022-08-26T22:49:31.695Z,22.10
2022-08-26T22:52:18.811Z,18.40
2022-08-26T22:55:06.702Z,19.50
2022-08-26T22:57:54.026Z,15.05
2022-08-26T23:00:42.485Z,13.10
2022-08-26T23:03:31.819Z,19.10
2022-08-26T23:06:19.054Z,16.15
2022-08-26T23:09:07.741Z,20.33
2022-08-26T23:11:57.746Z,17.63
2022-08-26T23:14:44.952Z,16.87
2022-08-26T23:17:32.353Z,19.27
2022-08-26T23:20:19.873Z,16.90
2022-08-26T23:23:07.295Z,23.13
2022-08-26T23:25:55.321Z,19.23
2022-08-26T23:28:42.930Z,21.48
2022-08-26T23:31:30.251Z,20.63
2022-08-26T23:34:35.990Z,18.92
2022-08-26T23:37:23.746Z,22.05
2022-08-26T23:40:20.813Z,19.75
2022-08-26T23:43:11.310Z,18.70
2022-08-26T23:45:58.613Z,21.38
2022-08-26T23:48:46.135Z,20.35
2022-08-26T23:51:51.838Z,19.15
2022-08-26T23:54:40.281Z,16.05
2022-08-26T23:57:27.592Z,18.50
